Time;durP1;ratioP1;P1;durP2;ratioP2;P2;SDS_P1;SDS_P2;PMS_P1;PMS_P2;Temp;Humidity;BMP_temperature;BMP_pressure;BME280_temperature;BME280_humidity;BME280_pressure;Samples;Min_cycle;Max_cycle;Signal;HPM_P1;HPM_P2
2024/01/31 00:02:00;;;;;;;36.20;26.80;;;2.30;1.00;;;;;;5018833;28;20261;-40
2024/01/31 00:04:26;;;;;;;42.38;28.65;;;2.30;1.00;;;;;;5019241;28;20173;-41
2024/01/31 00:06:52;;;;;;;41.20;29.60;;;2.30;1.00;;;;;;5019058;28;20178;-40
2024/01/31 00:09:17;;;;;;;37.97;27.83;;;2.30;1.00;;;;;;5018626;28;20892;-40
2024/01/31 00:11:43;;;;;;;36.57;26.60;;;2.30;1.00;;;;;;5019263;28;20732;-40
2024/01/31 00:14:09;;;;;;;39.07;27.67;;;2.30;1.00;;;;;;5019391;28;20179;-40
2024/01/31 00:16:35;;;;;;;38.53;27.90;;;2.30;1.00;;;;;;5018642;28;20178;-45
2024/01/31 00:19:02;;;;;;;39.50;27.90;;;2.30;1.00;;;;;;5020875;28;20234;-40
2024/01/31 00:21:27;;;;;;;38.10;27.23;;;2.40;1.00;;;;;;5022801;28;20236;-39
2024/01/31 00:23:53;;;;;;;40.93;27.27;;;2.40;1.00;;;;;;5021780;28;20362;-40
2024/01/31 00:26:18;;;;;;;36.60;26.77;;;2.40;1.00;;;;;;5022638;28;20210;-42
2024/01/31 00:28:44;;;;;;;44.90;27.00;;;2.50;1.00;;;;;;5022278;28;20235;-46
2024/01/31 00:31:11;;;;;;;35.17;26.10;;;2.50;1.00;;;;;;5022672;28;20205;-41
2024/01/31 00:33:37;;;;;;;42.05;28.35;;;2.60;1.00;;;;;;5022519;28;20197;-40
2024/01/31 00:36:03;;;;;;;40.80;28.33;;;2.50;1.00;;;;;;5022336;28;20194;-41
2024/01/31 00:38:28;;;;;;;46.00;28.83;;;2.60;1.00;;;;;;5022173;28;20938;-40
2024/01/31 00:40:54;;;;;;;34.70;26.90;;;2.50;1.00;;;;;;5022058;28;20523;-41
2024/01/31 00:43:20;;;;;;;42.60;29.20;;;2.50;1.00;;;;;;5022287;28;20533;-46
2024/01/31 00:45:45;;;;;;;43.77;28.10;;;2.50;1.00;;;;;;5022231;28;20421;-40
2024/01/31 00:48:11;;;;;;;35.77;27.50;;;2.50;1.00;;;;;;5020926;28;20535;-40
2024/01/31 00:50:36;;;;;;;39.37;27.40;;;2.60;1.00;;;;;;5022391;28;20260;-51
2024/01/31 00:53:03;;;;;;;38.47;29.40;;;2.60;1.00;;;;;;5021438;28;20193;-44
2024/01/31 00:55:28;;;;;;;41.38;27.88;;;2.50;1.00;;;;;;5022041;28;20183;-40
2024/01/31 00:57:54;;;;;;;37.80;28.03;;;2.50;1.00;;;;;;5010391;28;20629;-40
2024/01/31 01:00:23;;;;;;;42.57;29.77;;;2.50;1.00;;;;;;5021902;28;20219;-40
2024/01/31 01:02:49;;;;;;;36.78;27.00;;;2.50;1.00;;;;;;5022122;28;20445;-40
2024/01/31 01:05:15;;;;;;;38.33;28.45;;;2.60;1.00;;;;;;5021825;28;20192;-40
2024/01/31 01:07:41;;;;;;;37.73;27.10;;;2.60;1.00;;;;;;5021897;28;20190;-41
2024/01/31 01:10:11;;;;;;;45.08;28.48;;;2.60;1.00;;;;;;5021363;28;20417;-40
2024/01/31 01:12:37;;;;;;;45.25;29.20;;;2.60;1.00;;;;;;5021744;28;20367;-40
2024/01/31 01:15:04;;;;;;;37.35;27.75;;;2.50;1.00;;;;;;5021589;28;20596;-41
2024/01/31 01:17:29;;;;;;;38.42;29.15;;;2.50;1.00;;;;;;5021514;28;20183;-54
2024/01/31 01:19:55;;;;;;;42.10;28.43;;;2.50;1.00;;;;;;5021069;28;20234;-58
2024/01/31 01:22:20;;;;;;;40.10;28.70;;;2.50;1.00;;;;;;5020005;28;20178;-56
2024/01/31 01:24:46;;;;;;;42.53;29.40;;;2.50;1.00;;;;;;5019454;28;20174;-60
2024/01/31 01:27:12;;;;;;;46.97;29.53;;;2.50;1.00;;;;;;5021604;28;20186;-61
2024/01/31 01:29:37;;;;;;;36.03;28.23;;;2.50;1.00;;;;;;5020832;28;20647;-60
2024/01/31 01:32:03;;;;;;;39.27;28.37;;;2.60;1.00;;;;;;5021121;28;20190;-60
2024/01/31 01:34:29;;;;;;;41.67;28.33;;;2.60;1.00;;;;;;5021348;28;20636;-50
2024/01/31 01:36:54;;;;;;;40.53;27.47;;;2.60;1.00;;;;;;5021828;28;20440;-60
2024/01/31 01:39:20;;;;;;;39.17;27.73;;;2.60;1.00;;;;;;5020680;28;20186;-59
2024/01/31 01:41:49;;;;;;;39.30;27.87;;;2.70;1.00;;;;;;5021490;28;20707;-56
2024/01/31 01:44:15;;;;;;;34.58;28.17;;;2.60;1.00;;;;;;5021037;28;20708;-60
2024/01/31 01:46:42;;;;;;;43.87;28.37;;;2.70;1.00;;;;;;5021344;28;20190;-59
2024/01/31 01:49:08;;;;;;;37.78;27.73;;;2.70;1.00;;;;;;5020300;28;20194;-56
2024/01/31 01:51:34;;;;;;;46.03;29.73;;;2.70;1.00;;;;;;5019982;28;20210;-60
2024/01/31 01:54:01;;;;;;;39.85;29.30;;;2.60;1.00;;;;;;5020648;28;20429;-60
2024/01/31 01:56:27;;;;;;;37.42;28.65;;;2.60;1.00;;;;;;5021016;28;20228;-58
2024/01/31 01:58:53;;;;;;;39.43;28.13;;;2.70;1.00;;;;;;5021380;28;20695;-51
2024/01/31 02:01:20;;;;;;;35.55;26.50;;;2.70;1.00;;;;;;5020689;28;20566;-59
2024/01/31 02:03:45;;;;;;;45.05;27.13;;;2.80;1.00;;;;;;5020231;28;20186;-59
2024/01/31 02:06:11;;;;;;;45.67;28.97;;;2.90;1.00;;;;;;5020697;28;20869;-59
2024/01/31 02:08:37;;;;;;;40.87;29.80;;;2.90;1.00;;;;;;5020366;28;20421;-58
2024/01/31 02:11:03;;;;;;;39.93;27.90;;;2.90;1.00;;;;;;5020738;28;20268;-60
2024/01/31 02:13:30;;;;;;;42.13;29.38;;;2.90;1.00;;;;;;5020357;28;20209;-61
2024/01/31 02:15:57;;;;;;;40.25;29.20;;;2.90;1.00;;;;;;5019941;28;20696;-55
2024/01/31 02:18:25;;;;;;;32.85;26.90;;;2.90;1.00;;;;;;5020096;28;20708;-59
2024/01/31 02:20:50;;;;;;;40.13;28.40;;;2.90;1.00;;;;;;5020361;28;20309;-59
2024/01/31 02:23:16;;;;;;;36.37;28.27;;;2.90;1.00;;;;;;5019328;28;20183;-58
2024/01/31 02:25:42;;;;;;;36.33;27.20;;;2.90;1.00;;;;;;5020388;28;20179;-60
2024/01/31 02:28:08;;;;;;;39.83;28.93;;;2.80;1.00;;;;;;5020351;28;20182;-60
2024/01/31 02:30:33;;;;;;;36.47;26.80;;;2.80;1.00;;;;;;5020173;28;20201;-60
2024/01/31 02:32:59;;;;;;;36.20;26.80;;;2.90;1.00;;;;;;5020323;28;20459;-59
2024/01/31 02:35:25;;;;;;;36.07;27.53;;;3.00;1.00;;;;;;5019121;28;20207;-59
2024/01/31 02:37:50;;;;;;;35.20;28.50;;;3.00;1.00;;;;;;5020076;28;20197;-59
2024/01/31 02:40:16;;;;;;;32.93;26.80;;;3.00;1.00;;;;;;5019106;28;20207;-60
2024/01/31 02:42:43;;;;;;;40.13;28.40;;;3.00;1.00;;;;;;5019316;28;20715;-60
2024/01/31 02:45:08;;;;;;;43.13;29.27;;;3.00;1.00;;;;;;5020225;28;20189;-60
2024/01/31 02:47:34;;;;;;;38.30;27.53;;;3.00;1.00;;;;;;5018223;28;20446;-55
2024/01/31 02:50:03;;;;;;;42.70;29.60;;;3.00;1.00;;;;;;5018640;28;20194;-59
2024/01/31 02:52:29;;;;;;;36.25;28.85;;;3.00;1.00;;;;;;5020328;28;20182;-59
2024/01/31 02:54:55;;;;;;;42.65;28.52;;;2.90;1.00;;;;;;5018553;28;21024;-60
2024/01/31 02:57:21;;;;;;;35.83;26.93;;;3.00;1.00;;;;;;5019800;28;20269;-60
2024/01/31 02:59:46;;;;;;;32.90;25.17;;;3.10;1.00;;;;;;5019678;28;20246;-46
2024/01/31 03:02:16;;;;;;;38.80;27.80;;;3.10;1.00;;;;;;5019416;28;20174;-60
2024/01/31 03:04:41;;;;;;;33.95;26.50;;;3.10;1.00;;;;;;5018001;28;20193;-59
2024/01/31 03:07:07;;;;;;;40.27;29.60;;;3.20;1.00;;;;;;5020057;28;20194;-51
2024/01/31 03:09:32;;;;;;;40.40;27.60;;;3.10;1.00;;;;;;5019569;28;20178;-59
2024/01/31 03:11:58;;;;;;;40.03;27.90;;;3.10;1.00;;;;;;5019853;28;20625;-53
2024/01/31 03:14:23;;;;;;;40.10;29.27;;;3.10;1.00;;;;;;5019495;28;20178;-42
2024/01/31 03:16:49;;;;;;;36.30;27.77;;;3.10;1.00;;;;;;5019612;28;20222;-41
2024/01/31 03:19:15;;;;;;;32.97;26.90;;;3.10;1.00;;;;;;5019285;28;20222;-43
2024/01/31 03:21:41;;;;;;;43.13;28.30;;;3.20;1.00;;;;;;5019494;28;20985;-41
2024/01/31 03:24:06;;;;;;;38.03;27.93;;;3.20;1.00;;;;;;5019429;28;20456;-60
2024/01/31 03:26:32;;;;;;;38.57;28.27;;;3.20;1.00;;;;;;5019206;28;20182;-62
2024/01/31 03:29:01;;;;;;;41.73;28.70;;;3.30;1.00;;;;;;5020103;28;20645;-59
2024/01/31 03:31:27;;;;;;;41.15;28.45;;;3.30;1.00;;;;;;5019029;28;20182;-60
2024/01/31 03:33:52;;;;;;;39.70;27.50;;;3.30;1.00;;;;;;5017204;28;20190;-60
2024/01/31 03:36:18;;;;;;;38.60;26.77;;;3.20;1.00;;;;;;5018983;28;20197;-60
2024/01/31 03:38:44;;;;;;;42.73;27.90;;;3.20;1.00;;;;;;5017942;28;20186;-52
2024/01/31 03:41:09;;;;;;;34.13;27.13;;;3.20;1.00;;;;;;5018996;28;20218;-60
2024/01/31 03:43:35;;;;;;;43.83;27.80;;;3.20;1.00;;;;;;5019587;28;20231;-60
2024/01/31 03:46:05;;;;;;;41.17;29.90;;;3.10;1.00;;;;;;5018692;28;20648;-60
2024/01/31 03:48:31;;;;;;;38.10;28.10;;;3.20;1.00;;;;;;5019158;28;20231;-59
2024/01/31 03:50:58;;;;;;;34.87;27.27;;;3.20;1.00;;;;;;5018976;28;20602;-57
2024/01/31 03:53:25;;;;;;;36.17;27.35;;;3.20;1.00;;;;;;5022463;28;20174;-56
2024/01/31 03:55:50;;;;;;;37.83;28.27;;;3.20;1.00;;;;;;5022853;28;20186;-60
2024/01/31 03:58:17;;;;;;;40.33;28.43;;;3.20;1.00;;;;;;5022855;28;20190;-60
2024/01/31 04:00:43;;;;;;;39.25;28.52;;;3.20;1.00;;;;;;5023021;28;20221;-57
2024/01/31 04:03:09;;;;;;;40.77;29.10;;;3.20;1.00;;;;;;5022107;28;20179;-60
2024/01/31 04:05:34;;;;;;;41.70;28.50;;;3.20;1.00;;;;;;5023311;28;20425;-53
2024/01/31 04:08:00;;;;;;;44.33;29.37;;;3.20;1.00;;;;;;5022197;28;20196;-59
2024/01/31 04:10:26;;;;;;;41.73;28.37;;;3.20;1.00;;;;;;5022943;28;20203;-53
2024/01/31 04:12:52;;;;;;;39.90;27.33;;;3.30;1.00;;;;;;5023232;28;20183;-60
2024/01/31 04:15:18;;;;;;;40.45;28.02;;;3.30;1.00;;;;;;5022689;28;20569;-61
2024/01/31 04:17:43;;;;;;;42.50;30.13;;;3.30;1.00;;;;;;5022754;28;20276;-59
2024/01/31 04:20:11;;;;;;;36.60;28.60;;;3.20;1.00;;;;;;5022452;28;20218;-60
2024/01/31 04:22:37;;;;;;;41.65;28.13;;;3.20;1.00;;;;;;5022842;28;20454;-60
2024/01/31 04:25:03;;;;;;;47.08;29.63;;;3.30;1.00;;;;;;5022662;28;20544;-39
2024/01/31 04:27:29;;;;;;;38.50;27.65;;;3.30;1.00;;;;;;5022129;28;20520;-41
2024/01/31 04:29:55;;;;;;;42.70;28.97;;;3.40;1.00;;;;;;5022485;28;20200;-39
2024/01/31 04:32:22;;;;;;;40.60;28.70;;;3.40;1.00;;;;;;5022455;28;20182;-40
2024/01/31 04:34:48;;;;;;;37.15;26.25;;;3.50;1.00;;;;;;5018980;28;20186;-42
2024/01/31 04:37:13;;;;;;;42.90;29.60;;;3.50;1.00;;;;;;5022020;28;20539;-60
2024/01/31 04:39:39;;;;;;;37.90;27.63;;;3.50;1.00;;;;;;5022751;28;20201;-51
2024/01/31 04:42:04;;;;;;;37.73;27.50;;;3.60;1.00;;;;;;5021786;28;20195;-61
2024/01/31 04:44:30;;;;;;;43.70;27.90;;;3.60;1.00;;;;;;5022309;28;20216;-59
2024/01/31 04:46:56;;;;;;;42.73;28.47;;;3.70;1.00;;;;;;5021895;28;20239;-60
2024/01/31 04:49:21;;;;;;;46.87;29.13;;;3.70;1.00;;;;;;5022554;28;20539;-60
2024/01/31 04:51:47;;;;;;;40.87;28.00;;;3.70;99.90;;;;;;5020425;28;20282;-60
2024/01/31 04:54:13;;;;;;;38.70;28.00;;;3.60;99.90;;;;;;5021869;28;20220;-60
2024/01/31 04:56:38;;;;;;;40.63;28.20;;;3.70;99.90;;;;;;5022708;28;20174;-55
2024/01/31 04:59:04;;;;;;;39.23;27.67;;;3.60;99.90;;;;;;5022551;28;20190;-60
2024/01/31 05:01:30;;;;;;;40.93;28.60;;;3.60;99.90;;;;;;5019648;28;20612;-59
2024/01/31 05:03:58;;;;;;;39.70;28.00;;;3.70;99.90;;;;;;5020491;28;20435;-53
2024/01/31 05:06:24;;;;;;;35.30;27.65;;;3.60;99.90;;;;;;5021690;28;20171;-60
2024/01/31 05:08:49;;;;;;;33.10;25.80;;;3.60;99.90;;;;;;5022014;28;20664;-63
2024/01/31 05:11:15;;;;;;;44.93;28.67;;;3.60;99.90;;;;;;5021159;28;20199;-57
2024/01/31 05:13:40;;;;;;;40.00;27.93;;;3.70;99.90;;;;;;5023016;28;20218;-61
2024/01/31 05:16:10;;;;;;;41.40;27.50;;;3.70;99.90;;;;;;5022410;28;20190;-57
2024/01/31 05:18:36;;;;;;;37.92;27.20;;;3.60;99.90;;;;;;5022115;28;20586;-60
2024/01/31 05:21:02;;;;;;;39.00;27.42;;;3.60;99.90;;;;;;5022410;28;20220;-61
2024/01/31 05:23:28;;;;;;;40.95;28.50;;;3.60;99.90;;;;;;5022675;28;20181;-60
2024/01/31 05:25:54;;;;;;;41.70;28.77;;;3.60;99.90;;;;;;5022166;28;20210;-59
2024/01/31 05:28:20;;;;;;;42.70;29.13;;;3.50;99.90;;;;;;5022572;28;20183;-59
2024/01/31 05:30:46;;;;;;;41.85;30.00;;;3.50;99.90;;;;;;5021932;28;20759;-60
2024/01/31 05:33:12;;;;;;;41.65;28.33;;;3.50;99.90;;;;;;5022211;28;20221;-59
2024/01/31 05:35:38;;;;;;;45.47;31.15;;;3.40;1.00;;;;;;5022371;28;20613;-60
2024/01/31 05:38:04;;;;;;;41.13;31.00;;;3.40;1.00;;;;;;5022175;28;20198;-57
2024/01/31 05:40:31;;;;;;;40.42;27.88;;;3.40;1.00;;;;;;5022719;28;20467;-59
2024/01/31 05:42:57;;;;;;;41.50;28.38;;;3.40;1.00;;;;;;5022110;28;20182;-59
2024/01/31 05:45:23;;;;;;;45.63;28.98;;;3.40;1.00;;;;;;5022243;28;20187;-58
2024/01/31 05:47:49;;;;;;;41.42;29.23;;;3.40;1.00;;;;;;5022129;28;20591;-59
2024/01/31 05:50:15;;;;;;;43.70;28.40;;;3.40;1.00;;;;;;5021434;28;20190;-57
2024/01/31 05:52:41;;;;;;;38.10;26.67;;;3.30;1.00;;;;;;5021652;28;20413;-59
2024/01/31 05:55:06;;;;;;;39.33;28.03;;;3.30;1.00;;;;;;5020930;28;20261;-58
2024/01/31 05:57:33;;;;;;;45.63;29.33;;;3.20;1.00;;;;;;5020996;28;20588;-60
2024/01/31 05:59:58;;;;;;;40.92;29.40;;;3.20;1.00;;;;;;5021515;28;20460;-57
2024/01/31 06:02:24;;;;;;;36.50;26.93;;;3.10;1.00;;;;;;5018907;28;20255;-60
2024/01/31 06:04:50;;;;;;;42.83;29.10;;;3.10;1.00;;;;;;5021190;28;20712;-60
2024/01/31 06:07:16;;;;;;;46.07;27.50;;;3.00;1.00;;;;;;5020352;28;20167;-60
2024/01/31 06:09:43;;;;;;;42.13;28.07;;;2.90;1.00;;;;;;5020759;28;20436;-59
2024/01/31 06:12:09;;;;;;;42.22;30.27;;;2.90;1.00;;;;;;5020979;28;20421;-60
2024/01/31 06:14:37;;;;;;;42.43;28.43;;;2.80;1.00;;;;;;5020617;28;20182;-60
2024/01/31 06:17:03;;;;;;;42.47;30.15;;;2.80;1.00;;;;;;5020580;28;20209;-60
2024/01/31 06:19:29;;;;;;;44.30;28.08;;;2.60;1.00;;;;;;5020391;28;20285;-60
2024/01/31 06:21:55;;;;;;;43.75;29.40;;;2.50;1.00;;;;;;5020652;28;20463;-61
2024/01/31 06:24:21;;;;;;;49.07;28.67;;;2.50;1.00;;;;;;5020390;28;20561;-50
2024/01/31 06:26:46;;;;;;;42.23;30.10;;;2.40;1.00;;;;;;5020525;28;20578;-60
2024/01/31 06:29:17;;;;;;;43.07;28.80;;;2.40;1.00;;;;;;5020528;28;20196;-60
2024/01/31 06:31:47;;;;;;;41.92;28.13;;;2.30;1.00;;;;;;5016638;28;20190;-55
2024/01/31 06:34:16;;;;;;;46.60;29.75;;;2.30;1.00;;;;;;5018587;28;20206;-60
2024/01/31 06:36:42;;;;;;;45.15;30.95;;;2.30;1.00;;;;;;5018626;28;20190;-60
2024/01/31 06:39:09;;;;;;;49.58;31.90;;;2.30;1.00;;;;;;5019698;28;20645;-61
2024/01/31 06:41:36;;;;;;;45.08;29.80;;;2.30;1.00;;;;;;5019730;28;20205;-61
2024/01/31 06:44:02;;;;;;;42.75;29.02;;;2.40;9.10;;;;;;5018943;28;20209;-61
2024/01/31 06:46:31;;;;;;;44.15;28.38;;;2.50;11.70;;;;;;5019155;28;20210;-60
2024/01/31 06:48:57;;;;;;;37.38;27.95;;;2.50;12.60;;;;;;5018651;28;20871;-61
2024/01/31 06:51:22;;;;;;;45.10;28.97;;;2.50;15.30;;;;;;5018981;28;20178;-57
2024/01/31 06:53:48;;;;;;;48.00;30.43;;;2.70;14.50;;;;;;5019488;28;20429;-60
2024/01/31 06:56:17;;;;;;;44.73;29.23;;;2.70;12.70;;;;;;5020121;28;20190;-60
2024/01/31 06:58:49;;;;;;;45.15;31.08;;;2.70;8.50;;;;;;5020067;28;20175;-61
2024/01/31 07:01:24;;;;;;;37.50;28.08;;;2.80;4.40;;;;;;5019510;28;20288;-40
2024/01/31 07:03:49;;;;;;;43.60;30.23;;;2.90;1.00;;;;;;5019430;28;20268;-40
2024/01/31 07:06:18;;;;;;;41.87;29.90;;;2.90;1.00;;;;;;5020024;28;20527;-40
2024/01/31 07:08:44;;;;;;;44.08;30.52;;;2.90;1.00;;;;;;5019760;28;20265;-40
2024/01/31 07:11:10;;;;;;;48.13;31.60;;;3.00;1.00;;;;;;5019834;28;20656;-40
2024/01/31 07:13:35;;;;;;;48.70;31.57;;;3.00;1.00;;;;;;5019454;28;20202;-40
2024/01/31 07:16:09;;;;;;;51.03;31.93;;;2.90;1.00;;;;;;5020126;28;20186;-40
2024/01/31 07:18:42;;;;;;;48.28;32.92;;;2.90;1.00;;;;;;5019230;28;20791;-40
2024/01/31 07:21:08;;;;;;;45.78;31.60;;;3.00;1.00;;;;;;5019649;28;20672;-43
2024/01/31 07:23:35;;;;;;;42.97;29.95;;;2.90;1.00;;;;;;5019400;28;20166;-43
2024/01/31 07:26:00;;;;;;;42.67;30.52;;;2.90;1.00;;;;;;5019717;28;20171;-40
2024/01/31 07:28:26;;;;;;;38.13;29.30;;;3.00;1.00;;;;;;5018875;28;20187;-40
2024/01/31 07:30:52;;;;;;;44.27;29.87;;;3.10;1.00;;;;;;5017513;28;20719;-40
2024/01/31 07:33:19;;;;;;;45.10;29.00;;;3.10;1.00;;;;;;5019524;28;20265;-44
2024/01/31 07:35:44;;;;;;;43.60;30.10;;;3.20;1.00;;;;;;5019639;28;20193;-42
2024/01/31 07:38:10;;;;;;;44.50;30.23;;;3.30;1.00;;;;;;5019555;28;20182;-40
2024/01/31 07:40:36;;;;;;;42.50;29.53;;;3.30;1.00;;;;;;5018492;28;20562;-40
2024/01/31 07:43:02;;;;;;;41.17;28.90;;;3.40;1.00;;;;;;5019389;28;20179;-41
2024/01/31 07:45:27;;;;;;;47.00;30.27;;;3.50;1.00;;;;;;5019477;28;20194;-41
2024/01/31 07:47:53;;;;;;;42.20;29.27;;;3.60;1.00;;;;;;5019467;28;20201;-40
2024/01/31 07:50:19;;;;;;;47.90;31.60;;;3.70;1.00;;;;;;5019811;28;20187;-40
2024/01/31 07:52:44;;;;;;;38.80;30.30;;;3.70;1.00;;;;;;5019559;28;20453;-43
2024/01/31 07:55:11;;;;;;;45.00;30.87;;;3.80;1.00;;;;;;5018767;28;20251;-41
2024/01/31 07:57:37;;;;;;;48.50;31.85;;;3.80;1.00;;;;;;5019803;28;20293;-44
2024/01/31 08:00:06;;;;;;;43.70;30.40;;;3.90;1.00;;;;;;5019069;28;20305;-41
2024/01/31 08:02:32;;;;;;;41.08;29.75;;;4.00;1.00;;;;;;5019184;28;20265;-41
2024/01/31 08:04:58;;;;;;;45.90;32.00;;;4.10;1.00;;;;;;5019493;28;20597;-41
2024/01/31 08:07:24;;;;;;;43.27;29.50;;;4.20;1.00;;;;;;5019465;28;20183;-41
2024/01/31 08:09:50;;;;;;;42.28;30.98;;;4.30;1.00;;;;;;5018493;28;20350;-41
2024/01/31 08:12:16;;;;;;;43.10;30.60;;;4.40;1.00;;;;;;5019109;28;20178;-41
2024/01/31 08:14:41;;;;;;;44.93;29.83;;;4.50;1.00;;;;;;5017319;28;20417;-40
2024/01/31 08:17:07;;;;;;;44.70;30.43;;;4.50;1.00;;;;;;5019432;28;20182;-40
2024/01/31 08:19:34;;;;;;;51.90;36.77;;;4.60;1.00;;;;;;5018712;28;20230;-40
2024/01/31 08:21:59;;;;;;;62.40;42.50;;;4.70;1.00;;;;;;5019267;28;20266;-60
2024/01/31 08:24:25;;;;;;;60.47;41.50;;;4.80;99.90;;;;;;5019400;28;20320;-61
2024/01/31 08:26:51;;;;;;;45.47;31.50;;;4.80;99.90;;;;;;5019153;28;20179;-51
2024/01/31 08:29:17;;;;;;;41.53;30.93;;;4.90;99.90;;;;;;5017566;28;20186;-60
2024/01/31 08:31:42;;;;;;;42.20;31.00;;;5.00;99.90;;;;;;5018959;28;20427;-42
2024/01/31 08:34:09;;;;;;;37.80;30.23;;;5.10;99.90;;;;;;5017876;28;20469;-40
2024/01/31 08:36:35;;;;;;;43.25;30.17;;;5.10;40.50;;;;;;5018793;28;20277;-60
2024/01/31 08:39:01;;;;;;;44.67;30.03;;;5.10;1.00;;;;;;5019455;28;20666;-61
2024/01/31 08:41:27;;;;;;;41.60;29.90;;;5.00;1.00;;;;;;5022763;28;20241;-61
2024/01/31 08:43:52;;;;;;;39.03;30.80;;;5.10;1.00;;;;;;5022285;28;20420;-60
2024/01/31 08:46:18;;;;;;;43.67;30.70;;;5.10;1.00;;;;;;5022392;28;20179;-54
2024/01/31 08:48:43;;;;;;;46.97;31.00;;;5.20;1.00;;;;;;5022431;28;20657;-61
2024/01/31 08:51:09;;;;;;;39.30;28.53;;;5.20;1.00;;;;;;5022222;28;20262;-61
2024/01/31 08:53:35;;;;;;;44.70;30.80;;;5.20;1.00;;;;;;5022533;28;20533;-60
2024/01/31 08:56:00;;;;;;;38.83;29.13;;;5.20;1.00;;;;;;5022693;28;20236;-60
2024/01/31 08:58:26;;;;;;;43.80;31.50;;;5.40;1.00;;;;;;5021774;28;20555;-60
2024/01/31 09:00:52;;;;;;;41.70;32.00;;;5.50;99.90;;;;;;5021959;28;20202;-60
2024/01/31 09:03:18;;;;;;;39.10;30.10;;;5.60;99.90;;;;;;5019779;28;20186;-60
2024/01/31 09:05:43;;;;;;;39.30;29.93;;;5.70;93.40;;;;;;5021841;28;20190;-60
2024/01/31 09:08:09;;;;;;;39.07;29.23;;;5.70;1.00;;;;;;5022025;28;20417;-56
2024/01/31 09:10:34;;;;;;;36.27;28.07;;;5.80;1.00;;;;;;5022178;28;20543;-41
2024/01/31 09:13:00;;;;;;;40.50;30.20;;;5.90;99.90;;;;;;5022291;28;20190;-40
2024/01/31 09:15:26;;;;;;;36.40;28.40;;;5.90;1.00;;;;;;5021729;28;20548;-40
2024/01/31 09:17:52;;;;;;;38.67;29.67;;;5.90;1.00;;;;;;5020984;28;20464;-40
2024/01/31 09:20:18;;;;;;;47.20;32.55;;;5.90;1.00;;;;;;5021655;28;20225;-41
2024/01/31 09:22:44;;;;;;;42.83;30.55;;;5.80;1.00;;;;;;5021911;28;20228;-40
2024/01/31 09:25:10;;;;;;;43.33;29.20;;;5.80;1.00;;;;;;5021786;28;20207;-40
2024/01/31 09:27:36;;;;;;;45.83;30.42;;;5.80;1.00;;;;;;5021520;28;20179;-41
2024/01/31 09:30:03;;;;;;;42.03;30.50;;;5.80;1.00;;;;;;5021380;28;20596;-40
2024/01/31 09:32:29;;;;;;;44.05;29.95;;;5.90;1.00;;;;;;5021311;28;20540;-41
2024/01/31 09:34:54;;;;;;;39.10;30.33;;;6.00;1.00;;;;;;5021607;28;20240;-40
2024/01/31 09:37:20;;;;;;;40.60;32.00;;;6.20;1.00;;;;;;5021879;28;20193;-40
2024/01/31 09:39:46;;;;;;;39.97;27.73;;;6.10;99.90;;;;;;5020358;28;20518;-43
2024/01/31 09:42:11;;;;;;;43.07;29.43;;;6.20;99.90;;;;;;5021423;28;20183;-45
2024/01/31 09:44:37;;;;;;;36.57;27.60;;;6.20;1.00;;;;;;5021223;28;20719;-42
2024/01/31 09:47:05;;;;;;;37.37;28.03;;;6.30;1.00;;;;;;5020667;28;20178;-40
2024/01/31 09:49:30;;;;;;;37.20;27.67;;;6.40;1.00;;;;;;5021224;28;20417;-40
2024/01/31 09:51:59;;;;;;;42.40;30.20;;;6.40;1.00;;;;;;5021155;28;20479;-40
2024/01/31 09:54:26;;;;;;;37.50;27.43;;;6.50;99.90;;;;;;5021061;28;20183;-39
2024/01/31 09:56:52;;;;;;;37.97;29.37;;;6.50;99.90;;;;;;5021111;28;20668;-40
2024/01/31 09:59:20;;;;;;;41.00;29.07;;;6.50;99.90;;;;;;5021231;28;20731;-43
2024/01/31 10:01:49;;;;;;;39.87;28.70;;;6.40;99.90;;;;;;5019602;28;20479;-39
2024/01/31 10:04:15;;;;;;;45.63;29.87;;;6.50;99.90;;;;;;5020805;28;20420;-41
2024/01/31 10:06:40;;;;;;;33.23;27.47;;;6.60;99.90;;;;;;5021043;28;20409;-40
2024/01/31 10:09:06;;;;;;;38.73;28.67;;;6.60;12.80;;;;;;5020786;28;20182;-40
2024/01/31 10:11:33;;;;;;;39.20;27.33;;;6.60;42.80;;;;;;5019574;28;20179;-40
2024/01/31 10:13:58;;;;;;;40.43;29.77;;;6.70;89.30;;;;;;5021078;28;20555;-40
2024/01/31 10:16:24;;;;;;;37.13;28.50;;;6.70;1.00;;;;;;5019810;28;20516;-43
2024/01/31 10:18:51;;;;;;;42.43;30.60;;;6.70;1.00;;;;;;5035976;28;20284;-38
2024/01/31 10:21:19;;;;;;;34.00;27.70;;;6.70;1.00;;;;;;5020473;28;20461;-41
2024/01/31 10:23:55;;;;;;;37.03;28.47;;;6.70;1.00;;;;;;5020840;28;20412;-40
2024/01/31 10:26:22;;;;;;;42.10;28.23;;;6.80;1.00;;;;;;5020225;28;20830;-42
2024/01/31 10:28:47;;;;;;;34.97;27.50;;;6.80;1.00;;;;;;5020857;28;20891;-40
2024/01/31 10:31:14;;;;;;;41.50;29.70;;;6.90;1.00;;;;;;5019800;28;20436;-41
2024/01/31 10:33:40;;;;;;;37.07;28.17;;;6.90;1.00;;;;;;5019844;28;20449;-40
2024/01/31 10:36:07;;;;;;;35.07;28.30;;;6.70;1.00;;;;;;5020610;28;20486;-40
2024/01/31 10:38:33;;;;;;;36.43;29.30;;;6.60;1.00;;;;;;5020028;28;20825;-40
2024/01/31 10:41:00;;;;;;;38.33;28.70;;;6.60;1.00;;;;;;5020214;28;20466;-41
2024/01/31 10:43:27;;;;;;;36.67;28.33;;;6.60;99.90;;;;;;5020342;28;20640;-40
2024/01/31 10:45:52;;;;;;;41.20;28.70;;;6.70;99.90;;;;;;5020052;28;20419;-40
2024/01/31 10:48:18;;;;;;;39.47;28.67;;;6.70;99.90;;;;;;5020212;28;20826;-40
2024/01/31 10:50:44;;;;;;;36.07;29.60;;;6.70;74.70;;;;;;5020027;28;20190;-52
2024/01/31 10:53:10;;;;;;;34.97;27.73;;;6.60;99.90;;;;;;5019883;28;20217;-61
2024/01/31 10:55:38;;;;;;;39.70;29.33;;;6.70;99.90;;;;;;5020246;28;20269;-60
2024/01/31 10:58:04;;;;;;;35.33;28.07;;;6.70;99.90;;;;;;5020127;28;20483;-41
2024/01/31 11:00:30;;;;;;;45.70;30.53;;;6.70;99.90;;;;;;5018448;28;20829;-41
2024/01/31 11:02:57;;;;;;;39.93;29.73;;;6.80;99.90;;;;;;5016366;28;20570;-41
2024/01/31 11:05:25;;;;;;;34.70;26.53;;;6.80;99.90;;;;;;5020048;28;20178;-57
2024/01/31 11:07:51;;;;;;;39.10;29.50;;;7.00;99.90;;;;;;5019735;28;20413;-55
2024/01/31 11:10:20;;;;;;;41.20;30.83;;;7.00;34.10;;;;;;5019379;28;20432;-61
2024/01/31 11:13:06;;;;;;;38.50;29.47;;;7.10;1.00;;;;;;5020074;28;20174;-41
2024/01/31 11:15:34;;;;;;;41.40;31.77;;;7.20;1.00;;;;;;5019608;28;20433;-41
2024/01/31 11:18:10;;;;;;;41.60;32.93;;;7.30;1.00;;;;;;5018899;28;20464;-41
2024/01/31 11:20:44;;;;;;;38.60;31.33;;;7.30;1.00;;;;;;5019553;28;20551;-43
2024/01/31 11:23:20;;;;;;;39.87;30.67;;;7.30;99.90;;;;;;5020220;28;20853;-41
2024/01/31 11:25:46;;;;;;;42.20;30.57;;;7.30;99.90;;;;;;5019676;28;20467;-41
2024/01/31 11:28:12;;;;;;;41.37;30.67;;;7.20;99.90;;;;;;5019858;28;20421;-41
2024/01/31 11:30:39;;;;;;;41.00;29.60;;;7.30;99.90;;;;;;5018580;28;21160;-42
2024/01/31 11:33:05;;;;;;;39.40;29.00;;;7.30;99.90;;;;;;5017923;28;20433;-43
2024/01/31 11:35:31;;;;;;;40.90;29.23;;;7.30;96.80;;;;;;5017762;28;20448;-42
2024/01/31 11:37:58;;;;;;;38.03;29.17;;;7.20;99.90;;;;;;5019885;28;20486;-40
2024/01/31 11:40:24;;;;;;;37.03;30.63;;;7.10;99.90;;;;;;5019140;28;20567;-43
2024/01/31 11:42:52;;;;;;;38.60;30.50;;;7.10;99.90;;;;;;5019746;28;20844;-41
2024/01/31 11:45:18;;;;;;;40.27;30.80;;;7.10;99.90;;;;;;5019348;28;20431;-40
2024/01/31 11:47:44;;;;;;;37.23;26.00;;;7.00;99.90;;;;;;5018241;28;20429;-41
2024/01/31 11:50:10;;;;;;;41.13;29.63;;;7.00;1.00;;;;;;5018112;28;20429;-61
2024/01/31 11:52:37;;;;;;;35.77;29.33;;;7.00;1.00;;;;;;5019361;28;20421;-61
2024/01/31 11:55:03;;;;;;;42.20;30.00;;;7.00;1.00;;;;;;5019154;28;20421;-61
2024/01/31 11:57:29;;;;;;;38.07;29.30;;;7.10;1.00;;;;;;5019527;28;20439;-61
2024/01/31 11:59:55;;;;;;;38.97;28.47;;;7.10;1.00;;;;;;5019243;28;20532;-60
2024/01/31 12:02:20;;;;;;;38.90;30.50;;;7.10;1.00;;;;;;5019330;28;20516;-60
2024/01/31 12:04:54;;;;;;;41.00;29.37;;;7.20;1.00;;;;;;5018192;28;20205;-54
2024/01/31 12:07:20;;;;;;;36.83;27.80;;;7.20;1.00;;;;;;5019070;28;20874;-41
2024/01/31 12:09:46;;;;;;;40.83;29.40;;;7.20;1.00;;;;;;5019317;28;20413;-43
2024/01/31 12:12:13;;;;;;;36.37;27.60;;;7.20;1.00;;;;;;5017981;28;20198;-40
2024/01/31 12:14:41;;;;;;;36.83;27.40;;;7.30;1.00;;;;;;5022420;28;20417;-43
2024/01/31 12:17:26;;;;;;;33.33;28.20;;;7.30;1.00;;;;;;5023000;28;20904;-40
2024/01/31 12:20:11;;;;;;;31.47;26.57;;;7.40;1.00;;;;;;5022440;28;20548;-40
2024/01/31 12:22:38;;;;;;;37.40;28.27;;;7.40;1.00;;;;;;5022657;28;20712;-41
2024/01/31 12:25:05;;;;;;;37.20;27.73;;;7.40;99.90;;;;;;5023105;28;20413;-41
2024/01/31 12:27:31;;;;;;;35.97;28.37;;;7.50;99.90;;;;;;5023127;28;20460;-43
2024/01/31 12:29:57;;;;;;;39.23;28.40;;;7.50;99.90;;;;;;5022986;28;20416;-40
2024/01/31 12:32:26;;;;;;;36.87;28.60;;;7.50;99.90;;;;;;5022712;28;20419;-40
2024/01/31 12:34:52;;;;;;;38.17;30.70;;;7.50;99.90;;;;;;5022818;28;20175;-40
2024/01/31 12:37:18;;;;;;;40.50;30.97;;;7.50;99.90;;;;;;5022425;28;20490;-42
2024/01/31 12:39:43;;;;;;;39.53;30.37;;;7.50;99.90;;;;;;5022487;28;20647;-40
2024/01/31 12:42:09;;;;;;;39.60;30.60;;;7.50;99.90;;;;;;5021900;28;20330;-41